Arta, Greece

8:19 AM EEST on May 25, 2015 (GMT +0300)
IWESTGRE4 | | Change Station
CLOSE
Current Station
Personal Weather Station
Location: NEA KAMARINA (SV1JMO), WEST GREECE
Elevation: 52 ft
Nearby Weather Stations

Elev 52 ft 38.93 °N, 20.85 °E | Updated 9 minutes ago

Partly Cloudy
Partly Cloudy
70.5 °F
Feels Like 74 °F
N
0.1
Wind Variable Wind from NNW
Gusts 3.1 mph

Today
High -- | Low -- °F
--% Chance of Precip.
Yesterday
High -- | Low -- °F
Precip. -- in
6:15 AM 8:50 PM
Waxing Crescent, 45% visible
Pressure 29.92 in
Visibility 6.2 miles
Clouds Few 2000 ft
Heat Index 74 °F
Dew Point 61 °F
Humidity 72%
Rainfall 0.00 in
Snow Depth Not available.
UV 1 out of 12
Pollen Not available.
Air Quality Not available.
Flu Activity Not available.
METAR LGPZ 250450Z 05005KT 9999 FEW020 18/14 Q1013 RMK FEW080 BLU

More Conditions Fewer Conditions

Pressure 29.92 in
Visibility 6.2 miles
Clouds Few 2000 ft
Heat Index 74 °F
Dew Point 61 °F
Humidity 72%
Rainfall 0.00 in
Snow Depth Not available.
UV 1 out of 12
Pollen Not available.
Air Quality Not available.
Flu Activity Not available.
METAR LGPZ 250450Z 05005KT 9999 FEW020 18/14 Q1013 RMK FEW080 BLU

More Conditions Fewer Conditions

10-Day Weather Forecast

Almanac

Astronomy

May. 25, 2015 Rise Set
Actual Time
Civil Twilight
Nautical Twilight
Astronomical Twilight
Moon
Length of Visible Light
Length of Day
Tomorrow will be .
, % of the Moon is Illuminated

Today's Extremes

Country Highs Country Lows

Community

WunderPhotos

Upload Photos

1,823,956 photos uploaded!

WunderBlogs® & News

Nearby

Air Quality

  Air Quality AQ Index Pollutant
Not available.

Snow Depth

Station Depth Elevation

Earthquake Activity

City Distance Mag. Time & Date
Minimum magnitude displayed is 2.5.

Coastal Water Temperatures

Place Temperature

Stations

Nearby Weather Stations

Station Location Temp. Windchill Dew Point Humidity Wind Precip. Elev Updated Type